sensor_id;sensor_type;location;lat;lon;timestamp;P1;durP1;ratioP1;P2;durP2;ratioP2
58472;SDS011;44775;51.564;5.460;2023-01-10T00:00:44;16.50;;;4.63;;
58472;SDS011;44775;51.564;5.460;2023-01-10T00:03:10;16.55;;;4.70;;
58472;SDS011;44775;51.564;5.460;2023-01-10T00:05:36;15.38;;;4.65;;
58472;SDS011;44775;51.564;5.460;2023-01-10T00:08:03;17.00;;;4.85;;
58472;SDS011;44775;51.564;5.460;2023-01-10T00:10:30;12.93;;;4.47;;
58472;SDS011;44775;51.564;5.460;2023-01-10T00:12:56;16.80;;;4.95;;
58472;SDS011;44775;51.564;5.460;2023-01-10T00:15:40;14.32;;;5.10;;
58472;SDS011;44775;51.564;5.460;2023-01-10T00:18:06;18.65;;;5.43;;
58472;SDS011;44775;51.564;5.460;2023-01-10T00:20:31;15.65;;;5.30;;
58472;SDS011;44775;51.564;5.460;2023-01-10T00:22:57;14.77;;;5.00;;
58472;SDS011;44775;51.564;5.460;2023-01-10T00:25:22;15.65;;;5.32;;
58472;SDS011;44775;51.564;5.460;2023-01-10T00:27:48;17.27;;;5.43;;
58472;SDS011;44775;51.564;5.460;2023-01-10T00:30:39;17.58;;;5.40;;
58472;SDS011;44775;51.564;5.460;2023-01-10T00:33:05;15.63;;;5.20;;
58472;SDS011;44775;51.564;5.460;2023-01-10T00:35:32;17.70;;;5.80;;
58472;SDS011;44775;51.564;5.460;2023-01-10T00:37:57;17.95;;;5.15;;
58472;SDS011;44775;51.564;5.460;2023-01-10T00:40:29;13.68;;;5.30;;
58472;SDS011;44775;51.564;5.460;2023-01-10T00:42:56;18.70;;;5.28;;
58472;SDS011;44775;51.564;5.460;2023-01-10T00:45:39;14.23;;;4.90;;
58472;SDS011;44775;51.564;5.460;2023-01-10T00:48:05;16.92;;;5.35;;
58472;SDS011;44775;51.564;5.460;2023-01-10T00:50:30;16.80;;;5.53;;
58472;SDS011;44775;51.564;5.460;2023-01-10T00:52:56;13.30;;;5.13;;
58472;SDS011;44775;51.564;5.460;2023-01-10T00:55:21;22.33;;;6.40;;
58472;SDS011;44775;51.564;5.460;2023-01-10T00:57:47;17.50;;;5.45;;
58472;SDS011;44775;51.564;5.460;2023-01-10T01:00:12;20.70;;;5.80;;
58472;SDS011;44775;51.564;5.460;2023-01-10T01:02:38;15.15;;;5.35;;
58472;SDS011;44775;51.564;5.460;2023-01-10T01:05:03;17.15;;;5.55;;
58472;SDS011;44775;51.564;5.460;2023-01-10T01:07:29;15.40;;;5.40;;
58472;SDS011;44775;51.564;5.460;2023-01-10T01:09:55;19.42;;;5.50;;
58472;SDS011;44775;51.564;5.460;2023-01-10T01:12:39;20.83;;;6.00;;
58472;SDS011;44775;51.564;5.460;2023-01-10T01:15:04;15.82;;;5.28;;
58472;SDS011;44775;51.564;5.460;2023-01-10T01:17:30;20.05;;;5.32;;
58472;SDS011;44775;51.564;5.460;2023-01-10T01:19:56;21.77;;;5.47;;
58472;SDS011;44775;51.564;5.460;2023-01-10T01:22:21;19.08;;;5.45;;
58472;SDS011;44775;51.564;5.460;2023-01-10T01:24:46;19.95;;;5.30;;
58472;SDS011;44775;51.564;5.460;2023-01-10T01:27:12;15.23;;;4.25;;
58472;SDS011;44775;51.564;5.460;2023-01-10T01:29:37;22.80;;;5.18;;
58472;SDS011;44775;51.564;5.460;2023-01-10T01:32:03;16.17;;;5.40;;
58472;SDS011;44775;51.564;5.460;2023-01-10T01:34:28;16.77;;;5.10;;
58472;SDS011;44775;51.564;5.460;2023-01-10T01:36:54;18.85;;;5.32;;
58472;SDS011;44775;51.564;5.460;2023-01-10T01:39:21;11.93;;;4.32;;
58472;SDS011;44775;51.564;5.460;2023-01-10T01:41:46;17.98;;;5.30;;
58472;SDS011;44775;51.564;5.460;2023-01-10T01:44:21;19.88;;;5.63;;
58472;SDS011;44775;51.564;5.460;2023-01-10T01:47:06;20.35;;;5.55;;
58472;SDS011;44775;51.564;5.460;2023-01-10T01:49:34;18.20;;;5.38;;
58472;SDS011;44775;51.564;5.460;2023-01-10T01:52:05;17.30;;;5.20;;
58472;SDS011;44775;51.564;5.460;2023-01-10T01:54:36;25.08;;;6.60;;
58472;SDS011;44775;51.564;5.460;2023-01-10T01:57:09;23.90;;;6.80;;
58472;SDS011;44775;51.564;5.460;2023-01-10T01:59:42;20.73;;;6.90;;
58472;SDS011;44775;51.564;5.460;2023-01-10T02:02:13;25.00;;;7.60;;
58472;SDS011;44775;51.564;5.460;2023-01-10T02:04:52;21.95;;;8.15;;
58472;SDS011;44775;51.564;5.460;2023-01-10T02:07:21;23.63;;;8.40;;
58472;SDS011;44775;51.564;5.460;2023-01-10T02:09:54;23.90;;;8.82;;
58472;SDS011;44775;51.564;5.460;2023-01-10T02:12:21;31.27;;;10.05;;
58472;SDS011;44775;51.564;5.460;2023-01-10T02:14:48;27.52;;;9.60;;
58472;SDS011;44775;51.564;5.460;2023-01-10T02:17:16;25.98;;;10.00;;
58472;SDS011;44775;51.564;5.460;2023-01-10T02:19:48;24.35;;;9.65;;
58472;SDS011;44775;51.564;5.460;2023-01-10T02:34:19;21.60;;;7.72;;
58472;SDS011;44775;51.564;5.460;2023-01-10T02:36:57;22.80;;;8.23;;
58472;SDS011;44775;51.564;5.460;2023-01-10T02:39:39;21.70;;;7.40;;
58472;SDS011;44775;51.564;5.460;2023-01-10T02:45:03;27.02;;;7.80;;
58472;SDS011;44775;51.564;5.460;2023-01-10T02:47:37;22.65;;;7.32;;
58472;SDS011;44775;51.564;5.460;2023-01-10T02:52:50;22.02;;;6.32;;
58472;SDS011;44775;51.564;5.460;2023-01-10T02:55:16;22.42;;;6.60;;
58472;SDS011;44775;51.564;5.460;2023-01-10T03:11:03;23.88;;;5.82;;
58472;SDS011;44775;51.564;5.460;2023-01-10T03:15:56;20.77;;;5.60;;
58472;SDS011;44775;51.564;5.460;2023-01-10T03:18:29;20.05;;;5.97;;
58472;SDS011;44775;51.564;5.460;2023-01-10T03:20:57;22.60;;;6.03;;
58472;SDS011;44775;51.564;5.460;2023-01-10T03:23:25;18.77;;;5.43;;
58472;SDS011;44775;51.564;5.460;2023-01-10T03:25:52;22.08;;;5.30;;
58472;SDS011;44775;51.564;5.460;2023-01-10T03:28:29;22.75;;;5.35;;
58472;SDS011;44775;51.564;5.460;2023-01-10T03:31:00;22.95;;;5.00;;
58472;SDS011;44775;51.564;5.460;2023-01-10T03:33:31;17.83;;;5.45;;
58472;SDS011;44775;51.564;5.460;2023-01-10T03:38:56;22.85;;;6.07;;
58472;SDS011;44775;51.564;5.460;2023-01-10T03:41:36;22.00;;;4.95;;
58472;SDS011;44775;51.564;5.460;2023-01-10T03:44:15;19.83;;;5.10;;
58472;SDS011;44775;51.564;5.460;2023-01-10T03:49:43;18.67;;;4.97;;
58472;SDS011;44775;51.564;5.460;2023-01-10T03:52:13;21.88;;;4.85;;
58472;SDS011;44775;51.564;5.460;2023-01-10T03:54:41;23.85;;;5.25;;
58472;SDS011;44775;51.564;5.460;2023-01-10T03:57:13;18.65;;;5.18;;
58472;SDS011;44775;51.564;5.460;2023-01-10T03:59:40;18.48;;;5.10;;
58472;SDS011;44775;51.564;5.460;2023-01-10T04:02:06;27.38;;;4.93;;
58472;SDS011;44775;51.564;5.460;2023-01-10T04:04:31;23.98;;;5.22;;
58472;SDS011;44775;51.564;5.460;2023-01-10T04:06:56;15.73;;;4.97;;
58472;SDS011;44775;51.564;5.460;2023-01-10T04:09:22;25.23;;;5.47;;
58472;SDS011;44775;51.564;5.460;2023-01-10T04:11:47;23.80;;;5.18;;
58472;SDS011;44775;51.564;5.460;2023-01-10T04:14:13;19.02;;;4.88;;
58472;SDS011;44775;51.564;5.460;2023-01-10T04:16:39;18.60;;;5.13;;
58472;SDS011;44775;51.564;5.460;2023-01-10T04:19:04;20.95;;;5.07;;
58472;SDS011;44775;51.564;5.460;2023-01-10T04:21:30;22.40;;;6.05;;
58472;SDS011;44775;51.564;5.460;2023-01-10T04:23:55;19.67;;;4.65;;
58472;SDS011;44775;51.564;5.460;2023-01-10T04:26:21;19.77;;;4.82;;
58472;SDS011;44775;51.564;5.460;2023-01-10T04:28:46;16.38;;;4.53;;
58472;SDS011;44775;51.564;5.460;2023-01-10T04:31:12;26.17;;;5.53;;
58472;SDS011;44775;51.564;5.460;2023-01-10T04:33:37;24.45;;;5.63;;
58472;SDS011;44775;51.564;5.460;2023-01-10T04:36:04;18.60;;;4.18;;
58472;SDS011;44775;51.564;5.460;2023-01-10T04:38:30;20.42;;;4.20;;
58472;SDS011;44775;51.564;5.460;2023-01-10T04:40:56;23.98;;;4.45;;
58472;SDS011;44775;51.564;5.460;2023-01-10T04:43:25;11.57;;;3.53;;
58472;SDS011;44775;51.564;5.460;2023-01-10T04:45:50;27.92;;;5.40;;
58472;SDS011;44775;51.564;5.460;2023-01-10T04:48:16;23.40;;;4.57;;
58472;SDS011;44775;51.564;5.460;2023-01-10T04:50:42;25.10;;;5.43;;
58472;SDS011;44775;51.564;5.460;2023-01-10T04:53:12;25.42;;;4.57;;
58472;SDS011;44775;51.564;5.460;2023-01-10T04:55:38;29.95;;;5.93;;
58472;SDS011;44775;51.564;5.460;2023-01-10T04:58:03;28.08;;;4.95;;
58472;SDS011;44775;51.564;5.460;2023-01-10T05:00:29;25.20;;;4.63;;
58472;SDS011;44775;51.564;5.460;2023-01-10T05:02:55;21.70;;;4.82;;
58472;SDS011;44775;51.564;5.460;2023-01-10T05:05:21;18.80;;;3.95;;
58472;SDS011;44775;51.564;5.460;2023-01-10T05:07:46;19.58;;;4.55;;
58472;SDS011;44775;51.564;5.460;2023-01-10T05:10:12;25.83;;;5.30;;
58472;SDS011;44775;51.564;5.460;2023-01-10T05:12:38;21.55;;;4.53;;
58472;SDS011;44775;51.564;5.460;2023-01-10T05:15:03;22.77;;;4.80;;
58472;SDS011;44775;51.564;5.460;2023-01-10T05:17:29;22.25;;;4.63;;
58472;SDS011;44775;51.564;5.460;2023-01-10T05:19:55;21.15;;;4.68;;
58472;SDS011;44775;51.564;5.460;2023-01-10T05:22:20;21.65;;;4.43;;
58472;SDS011;44775;51.564;5.460;2023-01-10T05:24:46;25.00;;;5.00;;
58472;SDS011;44775;51.564;5.460;2023-01-10T05:27:11;21.52;;;5.22;;
58472;SDS011;44775;51.564;5.460;2023-01-10T05:29:37;23.52;;;4.60;;
58472;SDS011;44775;51.564;5.460;2023-01-10T05:32:02;29.08;;;5.18;;
58472;SDS011;44775;51.564;5.460;2023-01-10T05:34:28;24.45;;;4.85;;
58472;SDS011;44775;51.564;5.460;2023-01-10T05:36:53;19.80;;;4.45;;
58472;SDS011;44775;51.564;5.460;2023-01-10T05:39:18;28.05;;;5.03;;
58472;SDS011;44775;51.564;5.460;2023-01-10T05:41:45;22.48;;;5.03;;
58472;SDS011;44775;51.564;5.460;2023-01-10T05:44:11;22.45;;;4.18;;
58472;SDS011;44775;51.564;5.460;2023-01-10T05:46:36;32.60;;;4.95;;
58472;SDS011;44775;51.564;5.460;2023-01-10T05:49:02;25.08;;;4.15;;
58472;SDS011;44775;51.564;5.460;2023-01-10T05:51:27;28.00;;;5.15;;
58472;SDS011;44775;51.564;5.460;2023-01-10T05:53:53;25.45;;;5.40;;
58472;SDS011;44775;51.564;5.460;2023-01-10T05:56:18;25.17;;;4.43;;
58472;SDS011;44775;51.564;5.460;2023-01-10T05:58:44;22.50;;;4.07;;
58472;SDS011;44775;51.564;5.460;2023-01-10T06:01:09;23.83;;;4.38;;
58472;SDS011;44775;51.564;5.460;2023-01-10T06:03:35;28.50;;;4.97;;
58472;SDS011;44775;51.564;5.460;2023-01-10T06:06:01;24.85;;;4.55;;
58472;SDS011;44775;51.564;5.460;2023-01-10T06:08:27;28.00;;;4.53;;
58472;SDS011;44775;51.564;5.460;2023-01-10T06:10:53;29.13;;;5.00;;
58472;SDS011;44775;51.564;5.460;2023-01-10T06:13:19;26.42;;;4.95;;
58472;SDS011;44775;51.564;5.460;2023-01-10T06:15:45;29.60;;;4.88;;
58472;SDS011;44775;51.564;5.460;2023-01-10T06:18:11;27.27;;;5.00;;
58472;SDS011;44775;51.564;5.460;2023-01-10T06:20:36;26.77;;;4.78;;
58472;SDS011;44775;51.564;5.460;2023-01-10T06:23:02;17.35;;;3.55;;
58472;SDS011;44775;51.564;5.460;2023-01-10T06:25:29;21.85;;;4.60;;
58472;SDS011;44775;51.564;5.460;2023-01-10T06:27:55;29.40;;;5.28;;
58472;SDS011;44775;51.564;5.460;2023-01-10T06:30:21;26.15;;;4.57;;
58472;SDS011;44775;51.564;5.460;2023-01-10T06:32:46;30.92;;;4.85;;
58472;SDS011;44775;51.564;5.460;2023-01-10T06:35:12;25.63;;;3.92;;
58472;SDS011;44775;51.564;5.460;2023-01-10T06:37:37;33.40;;;5.72;;
58472;SDS011;44775;51.564;5.460;2023-01-10T06:40:03;33.53;;;5.47;;
58472;SDS011;44775;51.564;5.460;2023-01-10T06:42:29;22.90;;;4.03;;
58472;SDS011;44775;51.564;5.460;2023-01-10T06:44:54;23.83;;;4.65;;
58472;SDS011;44775;51.564;5.460;2023-01-10T06:47:20;23.13;;;4.63;;
58472;SDS011;44775;51.564;5.460;2023-01-10T06:49:45;28.60;;;4.80;;
58472;SDS011;44775;51.564;5.460;2023-01-10T06:52:11;28.15;;;5.15;;
58472;SDS011;44775;51.564;5.460;2023-01-10T06:54:36;24.38;;;4.45;;
58472;SDS011;44775;51.564;5.460;2023-01-10T06:57:02;30.40;;;5.10;;
58472;SDS011;44775;51.564;5.460;2023-01-10T06:59:28;26.38;;;5.18;;
58472;SDS011;44775;51.564;5.460;2023-01-10T07:01:54;25.42;;;5.13;;
58472;SDS011;44775;51.564;5.460;2023-01-10T07:04:19;23.63;;;4.53;;
58472;SDS011;44775;51.564;5.460;2023-01-10T07:06:44;28.95;;;5.10;;
58472;SDS011;44775;51.564;5.460;2023-01-10T07:09:10;31.52;;;5.50;;
58472;SDS011;44775;51.564;5.460;2023-01-10T07:11:35;28.55;;;4.68;;
58472;SDS011;44775;51.564;5.460;2023-01-10T07:14:01;35.58;;;4.53;;
58472;SDS011;44775;51.564;5.460;2023-01-10T07:16:27;25.52;;;4.63;;
58472;SDS011;44775;51.564;5.460;2023-01-10T07:18:52;25.70;;;5.20;;
58472;SDS011;44775;51.564;5.460;2023-01-10T07:21:18;24.13;;;4.35;;
58472;SDS011;44775;51.564;5.460;2023-01-10T07:23:50;28.30;;;5.07;;
58472;SDS011;44775;51.564;5.460;2023-01-10T07:26:15;27.85;;;4.80;;
58472;SDS011;44775;51.564;5.460;2023-01-10T07:28:43;26.13;;;4.43;;
58472;SDS011;44775;51.564;5.460;2023-01-10T07:31:09;24.05;;;4.60;;
58472;SDS011;44775;51.564;5.460;2023-01-10T07:33:35;30.92;;;6.00;;
58472;SDS011;44775;51.564;5.460;2023-01-10T07:36:01;24.90;;;4.20;;
58472;SDS011;44775;51.564;5.460;2023-01-10T07:38:27;22.02;;;4.38;;
58472;SDS011;44775;51.564;5.460;2023-01-10T07:40:53;31.15;;;4.50;;
58472;SDS011;44775;51.564;5.460;2023-01-10T07:43:18;24.95;;;5.07;;
58472;SDS011;44775;51.564;5.460;2023-01-10T07:45:44;23.98;;;4.93;;
58472;SDS011;44775;51.564;5.460;2023-01-10T07:48:09;26.58;;;5.40;;
58472;SDS011;44775;51.564;5.460;2023-01-10T07:50:35;27.42;;;4.95;;
58472;SDS011;44775;51.564;5.460;2023-01-10T07:53:02;30.38;;;4.70;;
58472;SDS011;44775;51.564;5.460;2023-01-10T07:55:28;25.48;;;5.25;;
58472;SDS011;44775;51.564;5.460;2023-01-10T07:57:55;25.95;;;4.78;;
58472;SDS011;44775;51.564;5.460;2023-01-10T08:00:20;33.60;;;5.75;;
58472;SDS011;44775;51.564;5.460;2023-01-10T08:02:46;23.02;;;4.32;;
58472;SDS011;44775;51.564;5.460;2023-01-10T08:05:13;25.50;;;5.20;;
58472;SDS011;44775;51.564;5.460;2023-01-10T08:07:39;31.98;;;5.40;;
58472;SDS011;44775;51.564;5.460;2023-01-10T08:10:05;25.58;;;5.70;;
58472;SDS011;44775;51.564;5.460;2023-01-10T08:12:31;28.70;;;4.85;;
58472;SDS011;44775;51.564;5.460;2023-01-10T08:14:57;23.13;;;5.57;;
58472;SDS011;44775;51.564;5.460;2023-01-10T08:17:23;29.10;;;6.28;;
58472;SDS011;44775;51.564;5.460;2023-01-10T08:19:48;20.77;;;5.10;;
58472;SDS011;44775;51.564;5.460;2023-01-10T08:22:14;22.13;;;5.65;;
58472;SDS011;44775;51.564;5.460;2023-01-10T08:24:39;43.20;;;6.95;;
58472;SDS011;44775;51.564;5.460;2023-01-10T08:27:05;27.65;;;6.35;;
58472;SDS011;44775;51.564;5.460;2023-01-10T08:29:31;25.75;;;4.97;;
58472;SDS011;44775;51.564;5.460;2023-01-10T08:31:56;29.35;;;5.35;;
58472;SDS011;44775;51.564;5.460;2023-01-10T08:34:22;31.05;;;5.47;;
58472;SDS011;44775;51.564;5.460;2023-01-10T08:36:51;32.80;;;5.75;;
58472;SDS011;44775;51.564;5.460;2023-01-10T08:39:18;20.00;;;4.72;;
58472;SDS011;44775;51.564;5.460;2023-01-10T08:41:46;26.08;;;5.45;;
58472;SDS011;44775;51.564;5.460;2023-01-10T08:44:12;27.10;;;5.78;;
58472;SDS011;44775;51.564;5.460;2023-01-10T08:46:39;27.98;;;5.88;;
58472;SDS011;44775;51.564;5.460;2023-01-10T08:49:05;29.17;;;5.13;;
58472;SDS011;44775;51.564;5.460;2023-01-10T08:51:31;27.90;;;6.22;;
58472;SDS011;44775;51.564;5.460;2023-01-10T08:53:56;29.80;;;5.18;;
58472;SDS011;44775;51.564;5.460;2023-01-10T08:56:22;25.40;;;4.82;;
58472;SDS011;44775;51.564;5.460;2023-01-10T08:58:47;26.70;;;4.78;;
58472;SDS011;44775;51.564;5.460;2023-01-10T09:01:12;22.60;;;4.82;;
58472;SDS011;44775;51.564;5.460;2023-01-10T09:03:38;24.42;;;5.10;;
58472;SDS011;44775;51.564;5.460;2023-01-10T09:06:04;26.10;;;5.85;;
58472;SDS011;44775;51.564;5.460;2023-01-10T09:08:29;21.55;;;4.68;;
58472;SDS011;44775;51.564;5.460;2023-01-10T09:10:57;22.52;;;4.07;;
58472;SDS011;44775;51.564;5.460;2023-01-10T09:15:50;28.10;;;4.60;;
58472;SDS011;44775;51.564;5.460;2023-01-10T09:18:15;23.15;;;5.35;;
58472;SDS011;44775;51.564;5.460;2023-01-10T09:20:41;24.02;;;4.53;;
58472;SDS011;44775;51.564;5.460;2023-01-10T09:23:11;20.85;;;4.55;;
58472;SDS011;44775;51.564;5.460;2023-01-10T09:25:41;26.08;;;4.78;;
58472;SDS011;44775;51.564;5.460;2023-01-10T09:28:07;25.02;;;5.07;;
58472;SDS011;44775;51.564;5.460;2023-01-10T09:30:33;24.35;;;4.47;;
58472;SDS011;44775;51.564;5.460;2023-01-10T09:32:59;23.33;;;4.82;;
58472;SDS011;44775;51.564;5.460;2023-01-10T09:35:25;21.55;;;4.00;;
58472;SDS011;44775;51.564;5.460;2023-01-10T09:37:53;28.38;;;5.18;;
58472;SDS011;44775;51.564;5.460;2023-01-10T09:43:37;25.15;;;4.80;;
58472;SDS011;44775;51.564;5.460;2023-01-10T09:52:01;24.65;;;4.72;;
58472;SDS011;44775;51.564;5.460;2023-01-10T09:54:35;24.42;;;4.10;;
58472;SDS011;44775;51.564;5.460;2023-01-10T09:57:07;17.25;;;4.10;;
58472;SDS011;44775;51.564;5.460;2023-01-10T09:59:40;23.65;;;4.53;;
58472;SDS011;44775;51.564;5.460;2023-01-10T10:02:21;27.60;;;6.25;;
58472;SDS011;44775;51.564;5.460;2023-01-10T10:07:42;22.20;;;4.55;;
58472;SDS011;44775;51.564;5.460;2023-01-10T10:10:11;18.73;;;4.80;;
58472;SDS011;44775;51.564;5.460;2023-01-10T10:12:44;21.83;;;4.78;;
58472;SDS011;44775;51.564;5.460;2023-01-10T10:20:48;12.95;;;3.55;;
58472;SDS011;44775;51.564;5.460;2023-01-10T10:23:28;22.05;;;5.07;;
58472;SDS011;44775;51.564;5.460;2023-01-10T10:34:40;28.10;;;4.93;;
58472;SDS011;44775;51.564;5.460;2023-01-10T10:39:43;24.67;;;4.50;;
58472;SDS011;44775;51.564;5.460;2023-01-10T10:42:14;22.10;;;4.10;;
58472;SDS011;44775;51.564;5.460;2023-01-10T10:44:44;20.98;;;4.20;;
58472;SDS011;44775;51.564;5.460;2023-01-10T10:47:18;15.45;;;3.42;;
58472;SDS011;44775;51.564;5.460;2023-01-10T10:49:50;21.45;;;3.83;;
58472;SDS011;44775;51.564;5.460;2023-01-10T10:52:24;18.70;;;3.70;;
58472;SDS011;44775;51.564;5.460;2023-01-10T10:54:54;21.23;;;4.00;;
58472;SDS011;44775;51.564;5.460;2023-01-10T10:57:21;19.65;;;4.65;;
58472;SDS011;44775;51.564;5.460;2023-01-10T10:59:50;18.38;;;4.28;;
58472;SDS011;44775;51.564;5.460;2023-01-10T11:02:50;19.38;;;3.90;;
58472;SDS011;44775;51.564;5.460;2023-01-10T11:05:22;15.32;;;3.42;;
58472;SDS011;44775;51.564;5.460;2023-01-10T11:07:56;19.83;;;3.65;;
58472;SDS011;44775;51.564;5.460;2023-01-10T11:10:30;20.55;;;3.70;;
58472;SDS011;44775;51.564;5.460;2023-01-10T11:13:44;18.23;;;3.75;;
58472;SDS011;44775;51.564;5.460;2023-01-10T11:15:57;19.90;;;3.83;;
58472;SDS011;44775;51.564;5.460;2023-01-10T11:18:25;23.30;;;4.50;;
58472;SDS011;44775;51.564;5.460;2023-01-10T11:21:34;22.10;;;3.92;;
58472;SDS011;44775;51.564;5.460;2023-01-10T11:23:42;20.00;;;4.03;;
58472;SDS011;44775;51.564;5.460;2023-01-10T11:26:23;20.65;;;4.60;;
58472;SDS011;44775;51.564;5.460;2023-01-10T11:29:01;15.68;;;4.00;;
58472;SDS011;44775;51.564;5.460;2023-01-10T11:31:32;24.13;;;4.10;;
58472;SDS011;44775;51.564;5.460;2023-01-10T11:34:01;24.88;;;4.45;;
58472;SDS011;44775;51.564;5.460;2023-01-10T11:36:51;24.80;;;4.70;;
58472;SDS011;44775;51.564;5.460;2023-01-10T11:39:20;26.23;;;4.65;;
58472;SDS011;44775;51.564;5.460;2023-01-10T11:41:46;21.58;;;5.00;;
58472;SDS011;44775;51.564;5.460;2023-01-10T11:46:45;26.90;;;4.97;;
58472;SDS011;44775;51.564;5.460;2023-01-10T11:49:13;19.77;;;4.68;;
58472;SDS011;44775;51.564;5.460;2023-01-10T11:51:46;20.38;;;4.40;;
58472;SDS011;44775;51.564;5.460;2023-01-10T11:56:42;19.45;;;4.47;;
58472;SDS011;44775;51.564;5.460;2023-01-10T11:59:19;24.27;;;4.82;;
58472;SDS011;44775;51.564;5.460;2023-01-10T12:02:10;19.67;;;4.25;;
58472;SDS011;44775;51.564;5.460;2023-01-10T12:04:44;21.55;;;4.43;;
58472;SDS011;44775;51.564;5.460;2023-01-10T12:07:13;16.85;;;4.70;;
58472;SDS011;44775;51.564;5.460;2023-01-10T12:14:47;30.92;;;4.63;;
58472;SDS011;44775;51.564;5.460;2023-01-10T12:17:19;17.70;;;4.18;;
58472;SDS011;44775;51.564;5.460;2023-01-10T12:19:47;17.17;;;3.88;;
58472;SDS011;44775;51.564;5.460;2023-01-10T12:22:17;19.52;;;4.35;;
58472;SDS011;44775;51.564;5.460;2023-01-10T12:24:45;19.52;;;3.95;;
58472;SDS011;44775;51.564;5.460;2023-01-10T12:27:14;21.30;;;3.95;;
58472;SDS011;44775;51.564;5.460;2023-01-10T12:32:27;23.35;;;4.50;;
58472;SDS011;44775;51.564;5.460;2023-01-10T12:35:02;17.73;;;4.40;;
58472;SDS011;44775;51.564;5.460;2023-01-10T12:37:39;21.08;;;4.88;;
58472;SDS011;44775;51.564;5.460;2023-01-10T12:40:23;19.70;;;4.35;;
58472;SDS011;44775;51.564;5.460;2023-01-10T12:42:56;21.10;;;4.72;;
58472;SDS011;44775;51.564;5.460;2023-01-10T12:45:46;18.92;;;4.10;;
58472;SDS011;44775;51.564;5.460;2023-01-10T12:51:08;23.30;;;4.28;;
58472;SDS011;44775;51.564;5.460;2023-01-10T12:53:40;18.63;;;4.55;;
58472;SDS011;44775;51.564;5.460;2023-01-10T12:56:10;17.77;;;4.38;;
58472;SDS011;44775;51.564;5.460;2023-01-10T12:58:39;20.40;;;4.40;;
58472;SDS011;44775;51.564;5.460;2023-01-10T13:01:09;26.08;;;4.68;;
58472;SDS011;44775;51.564;5.460;2023-01-10T13:03:40;19.20;;;4.68;;
58472;SDS011;44775;51.564;5.460;2023-01-10T13:06:09;20.38;;;5.03;;
58472;SDS011;44775;51.564;5.460;2023-01-10T13:08:46;26.80;;;4.03;;
58472;SDS011;44775;51.564;5.460;2023-01-10T13:11:12;22.55;;;3.80;;
58472;SDS011;44775;51.564;5.460;2023-01-10T13:13:42;16.35;;;3.45;;
58472;SDS011;44775;51.564;5.460;2023-01-10T13:21:31;22.90;;;4.38;;
58472;SDS011;44775;51.564;5.460;2023-01-10T13:24:02;19.25;;;4.13;;
58472;SDS011;44775;51.564;5.460;2023-01-10T13:29:22;17.50;;;3.88;;
58472;SDS011;44775;51.564;5.460;2023-01-10T13:31:50;18.42;;;3.60;;
58472;SDS011;44775;51.564;5.460;2023-01-10T13:34:22;22.13;;;4.20;;
58472;SDS011;44775;51.564;5.460;2023-01-10T13:36:55;21.00;;;4.07;;
58472;SDS011;44775;51.564;5.460;2023-01-10T13:39:36;24.98;;;3.85;;
58472;SDS011;44775;51.564;5.460;2023-01-10T13:42:26;24.13;;;4.28;;
58472;SDS011;44775;51.564;5.460;2023-01-10T13:45:25;20.20;;;3.83;;
58472;SDS011;44775;51.564;5.460;2023-01-10T13:55:23;20.65;;;3.90;;
58472;SDS011;44775;51.564;5.460;2023-01-10T14:08:54;24.60;;;4.43;;
58472;SDS011;44775;51.564;5.460;2023-01-10T14:14:12;22.67;;;5.25;;
58472;SDS011;44775;51.564;5.460;2023-01-10T14:17:35;29.73;;;6.88;;
58472;SDS011;44775;51.564;5.460;2023-01-10T14:19:37;18.80;;;4.70;;
58472;SDS011;44775;51.564;5.460;2023-01-10T14:22:03;28.63;;;5.03;;
58472;SDS011;44775;51.564;5.460;2023-01-10T14:24:39;26.05;;;4.55;;
58472;SDS011;44775;51.564;5.460;2023-01-10T14:27:13;22.10;;;4.72;;
58472;SDS011;44775;51.564;5.460;2023-01-10T14:29:45;21.08;;;4.97;;
58472;SDS011;44775;51.564;5.460;2023-01-10T14:32:36;19.70;;;4.82;;
58472;SDS011;44775;51.564;5.460;2023-01-10T14:35:06;19.23;;;4.25;;
58472;SDS011;44775;51.564;5.460;2023-01-10T14:37:38;23.13;;;5.10;;
58472;SDS011;44775;51.564;5.460;2023-01-10T14:42:46;21.58;;;3.85;;
58472;SDS011;44775;51.564;5.460;2023-01-10T14:48:16;22.08;;;4.25;;
58472;SDS011;44775;51.564;5.460;2023-01-10T14:50:48;15.18;;;4.10;;
58472;SDS011;44775;51.564;5.460;2023-01-10T14:53:24;16.80;;;3.97;;
58472;SDS011;44775;51.564;5.460;2023-01-10T14:55:53;21.42;;;4.47;;
58472;SDS011;44775;51.564;5.460;2023-01-10T14:58:19;19.65;;;4.40;;
58472;SDS011;44775;51.564;5.460;2023-01-10T15:00:46;19.40;;;4.40;;
58472;SDS011;44775;51.564;5.460;2023-01-10T15:03:18;15.70;;;4.35;;
58472;SDS011;44775;51.564;5.460;2023-01-10T15:05:46;19.08;;;4.68;;
58472;SDS011;44775;51.564;5.460;2023-01-10T15:08:34;12.30;;;4.18;;
58472;SDS011;44775;51.564;5.460;2023-01-10T15:11:01;15.68;;;4.25;;
58472;SDS011;44775;51.564;5.460;2023-01-10T15:13:34;15.77;;;4.03;;
58472;SDS011;44775;51.564;5.460;2023-01-10T15:16:05;15.50;;;5.15;;
58472;SDS011;44775;51.564;5.460;2023-01-10T15:18:42;15.27;;;4.43;;
58472;SDS011;44775;51.564;5.460;2023-01-10T15:21:10;15.00;;;4.17;;
58472;SDS011;44775;51.564;5.460;2023-01-10T15:23:41;12.18;;;4.63;;
58472;SDS011;44775;51.564;5.460;2023-01-10T15:26:09;17.10;;;4.28;;
58472;SDS011;44775;51.564;5.460;2023-01-10T15:28:44;11.75;;;3.47;;
58472;SDS011;44775;51.564;5.460;2023-01-10T15:33:41;16.77;;;4.05;;
58472;SDS011;44775;51.564;5.460;2023-01-10T15:36:13;15.32;;;3.90;;
58472;SDS011;44775;51.564;5.460;2023-01-10T15:38:42;13.65;;;3.90;;
58472;SDS011;44775;51.564;5.460;2023-01-10T15:41:14;13.00;;;4.03;;
58472;SDS011;44775;51.564;5.460;2023-01-10T15:43:43;14.45;;;3.63;;
58472;SDS011;44775;51.564;5.460;2023-01-10T15:46:16;10.82;;;3.22;;
58472;SDS011;44775;51.564;5.460;2023-01-10T15:48:52;11.65;;;3.90;;
58472;SDS011;44775;51.564;5.460;2023-01-10T15:51:33;12.48;;;3.80;;
58472;SDS011;44775;51.564;5.460;2023-01-10T15:54:02;13.68;;;3.67;;
58472;SDS011;44775;51.564;5.460;2023-01-10T15:59:28;13.60;;;3.97;;
58472;SDS011;44775;51.564;5.460;2023-01-10T16:02:05;8.43;;;3.28;;
58472;SDS011;44775;51.564;5.460;2023-01-10T16:04:39;12.10;;;3.40;;
58472;SDS011;44775;51.564;5.460;2023-01-10T16:07:22;12.45;;;4.00;;
58472;SDS011;44775;51.564;5.460;2023-01-10T16:09:55;9.90;;;4.20;;
58472;SDS011;44775;51.564;5.460;2023-01-10T16:12:26;13.18;;;4.50;;
58472;SDS011;44775;51.564;5.460;2023-01-10T16:15:22;13.05;;;3.78;;
58472;SDS011;44775;51.564;5.460;2023-01-10T16:17:55;11.90;;;4.05;;
58472;SDS011;44775;51.564;5.460;2023-01-10T16:20:22;8.75;;;3.47;;
58472;SDS011;44775;51.564;5.460;2023-01-10T16:22:51;11.90;;;3.65;;
58472;SDS011;44775;51.564;5.460;2023-01-10T16:25:18;11.40;;;4.30;;
58472;SDS011;44775;51.564;5.460;2023-01-10T16:27:49;13.43;;;3.58;;
58472;SDS011;44775;51.564;5.460;2023-01-10T16:30:25;11.15;;;4.13;;
58472;SDS011;44775;51.564;5.460;2023-01-10T16:32:55;7.75;;;3.33;;
58472;SDS011;44775;51.564;5.460;2023-01-10T16:35:23;9.88;;;3.88;;
58472;SDS011;44775;51.564;5.460;2023-01-10T16:37:52;10.40;;;3.85;;
58472;SDS011;44775;51.564;5.460;2023-01-10T16:43:16;7.47;;;3.22;;
58472;SDS011;44775;51.564;5.460;2023-01-10T16:45:52;9.35;;;3.80;;
58472;SDS011;44775;51.564;5.460;2023-01-10T16:48:24;6.68;;;3.63;;
58472;SDS011;44775;51.564;5.460;2023-01-10T16:50:50;8.45;;;4.25;;
58472;SDS011;44775;51.564;5.460;2023-01-10T16:53:16;9.15;;;4.22;;
58472;SDS011;44775;51.564;5.460;2023-01-10T16:55:44;7.97;;;3.70;;
58472;SDS011;44775;51.564;5.460;2023-01-10T16:58:14;5.03;;;3.17;;